Time;durP1;ratioP1;P1;durP2;ratioP2;P2;SDS_P1;SDS_P2;PMS_P1;PMS_P2;Temp;Humidity;BMP_temperature;BMP_pressure;BME280_temperature;BME280_humidity;BME280_pressure;Samples;Min_cycle;Max_cycle;Signal;HPM_P1;HPM_P2
2023/11/20 00:01:58;;;;;;;21.50;4.45;;;;;;;;;;5023949;28;20228;-73
2023/11/20 00:04:24;;;;;;;16.63;4.10;;;;;;;;;;5016863;28;20230;-74
2023/11/20 00:06:50;;;;;;;18.50;4.10;;;;;;;;;;5041696;28;20596;-73
2023/11/20 00:09:16;;;;;;;21.90;4.78;;;;;;;;;;5026344;28;20221;-73
2023/11/20 00:11:41;;;;;;;19.00;4.45;;;;;;;;;;5020430;28;20559;-73
2023/11/20 00:14:06;;;;;;;15.40;4.90;;;;;;;;;;5027016;28;20300;-73
2023/11/20 00:16:32;;;;;;;21.90;4.43;;;;;;;;;;5035497;28;20185;-73
2023/11/20 00:18:57;;;;;;;14.40;3.70;;;;;;;;;;5043649;28;20354;-73
2023/11/20 00:21:23;;;;;;;17.92;3.60;;;;;;;;;;5031768;28;20201;-73
2023/11/20 00:23:48;;;;;;;10.68;3.00;;;;;;;;;;5018938;28;20265;-73
2023/11/20 00:26:14;;;;;;;10.93;2.85;;;;;;;;;;5018267;28;20181;-72
2023/11/20 00:28:43;;;;;;;10.85;3.22;;;;;;;;;;5017068;28;20579;-73
2023/11/20 00:31:18;;;;;;;12.35;3.10;;;;;;;;;;5018928;28;20201;-72
2023/11/20 00:33:43;;;;;;;11.20;2.97;;;;;;;;;;5026566;28;20201;-72
2023/11/20 00:36:09;;;;;;;13.43;3.00;;;;;;;;;;5024351;28;20558;-73
2023/11/20 00:38:35;;;;;;;9.95;2.80;;;;;;;;;;5031376;28;20198;-73
2023/11/20 00:41:00;;;;;;;14.15;3.22;;;;;;;;;;5018192;28;20193;-73
2023/11/20 00:43:26;;;;;;;14.73;4.25;;;;;;;;;;5023955;28;20193;-73
2023/11/20 00:45:51;;;;;;;13.40;3.10;;;;;;;;;;5024546;28;20203;-73
2023/11/20 00:48:16;;;;;;;13.48;3.25;;;;;;;;;;5039379;28;20268;-73
2023/11/20 00:50:42;;;;;;;11.50;3.03;;;;;;;;;;5039310;28;20182;-73
2023/11/20 00:53:07;;;;;;;10.60;3.05;;;;;;;;;;5016066;28;20183;-74
2023/11/20 00:55:33;;;;;;;15.63;3.00;;;;;;;;;;5024785;28;20623;-74
2023/11/20 00:57:58;;;;;;;9.60;2.75;;;;;;;;;;5027213;28;20197;-75
2023/11/20 01:00:24;;;;;;;14.70;3.35;;;;;;;;;;5042304;28;20182;-74
2023/11/20 01:02:50;;;;;;;6.90;2.50;;;;;;;;;;5017223;28;20199;-74
2023/11/20 01:05:16;;;;;;;8.73;2.65;;;;;;;;;;5023636;28;20237;-73
2023/11/20 01:07:41;;;;;;;11.73;2.58;;;;;;;;;;5030685;28;20190;-73
2023/11/20 01:10:07;;;;;;;9.57;2.33;;;;;;;;;;5011719;28;20242;-73
2023/11/20 01:12:33;;;;;;;10.95;2.90;;;;;;;;;;5041642;28;20189;-72
2023/11/20 01:14:58;;;;;;;8.35;2.35;;;;;;;;;;5039515;28;20275;-72
2023/11/20 01:17:24;;;;;;;7.35;2.22;;;;;;;;;;5022533;28;20198;-73
2023/11/20 01:19:49;;;;;;;12.30;2.60;;;;;;;;;;5019906;28;20277;-74
2023/11/20 01:22:14;;;;;;;8.57;2.50;;;;;;;;;;5031652;28;20190;-75
2023/11/20 01:24:40;;;;;;;10.88;2.30;;;;;;;;;;5031548;28;20174;-74
2023/11/20 01:27:08;;;;;;;13.10;2.70;;;;;;;;;;5033896;28;20721;-74
2023/11/20 01:29:34;;;;;;;11.10;2.13;;;;;;;;;;5014712;28;20191;-74
2023/11/20 01:31:59;;;;;;;11.27;2.40;;;;;;;;;;5026880;28;20209;-74
2023/11/20 01:34:25;;;;;;;9.55;2.55;;;;;;;;;;5044309;28;20208;-74
2023/11/20 01:36:50;;;;;;;7.25;1.92;;;;;;;;;;5032405;28;20195;-75
2023/11/20 01:39:16;;;;;;;8.95;2.20;;;;;;;;;;5039246;28;20679;-74
2023/11/20 01:41:41;;;;;;;7.57;1.90;;;;;;;;;;5045889;28;20263;-75
2023/11/20 01:44:07;;;;;;;9.57;1.77;;;;;;;;;;5035467;28;20247;-75
2023/11/20 01:46:34;;;;;;;7.20;1.90;;;;;;;;;;5008696;28;20189;-75
2023/11/20 01:49:01;;;;;;;9.82;2.10;;;;;;;;;;5039971;28;20202;-75
2023/11/20 01:51:28;;;;;;;8.80;1.95;;;;;;;;;;5044456;28;20204;-74
2023/11/20 01:53:56;;;;;;;6.75;1.98;;;;;;;;;;5046535;28;20300;-74
2023/11/20 01:56:23;;;;;;;10.98;2.38;;;;;;;;;;5026621;28;20632;-73
2023/11/20 01:58:48;;;;;;;7.65;2.47;;;;;;;;;;5035891;28;20244;-73
2023/11/20 02:01:15;;;;;;;8.93;2.13;;;;;;;;;;5030740;28;20198;-73
2023/11/20 02:03:40;;;;;;;14.13;1.98;;;;;;;;;;5029390;28;20182;-74
2023/11/20 02:06:06;;;;;;;10.77;1.88;;;;;;;;;;5028596;28;20649;-74
2023/11/20 02:08:31;;;;;;;8.75;2.20;;;;;;;;;;5047697;28;20181;-74
2023/11/20 02:11:00;;;;;;;12.13;2.42;;;;;;;;;;5033956;28;20271;-75
2023/11/20 02:13:26;;;;;;;8.13;2.13;;;;;;;;;;5035224;28;20273;-73
2023/11/20 02:15:52;;;;;;;9.27;2.47;;;;;;;;;;5029345;28;20281;-73
2023/11/20 02:18:30;;;;;;;7.40;2.53;;;;;;;;;;5018335;28;20310;-73
2023/11/20 02:20:56;;;;;;;12.43;2.30;;;;;;;;;;5052190;28;20207;-74
2023/11/20 02:23:22;;;;;;;9.82;2.65;;;;;;;;;;5031224;28;20195;-75
2023/11/20 02:26:05;;;;;;;11.80;2.42;;;;;;;;;;5033326;28;20189;-75
2023/11/20 02:28:39;;;;;;;9.60;1.92;;;;;;;;;;5031848;28;20193;-74
2023/11/20 02:31:05;;;;;;;8.38;2.03;;;;;;;;;;5022354;28;20235;-74
2023/11/20 02:33:35;;;;;;;7.13;1.85;;;;;;;;;;5028922;28;20238;-73
2023/11/20 02:36:03;;;;;;;9.02;2.47;;;;;;;;;;5029988;28;20194;-74
2023/11/20 02:38:28;;;;;;;8.98;2.50;;;;;;;;;;5023195;28;20186;-72
2023/11/20 02:40:55;;;;;;;7.38;2.20;;;;;;;;;;5025574;28;20220;-74
2023/11/20 02:43:20;;;;;;;10.15;2.58;;;;;;;;;;5037688;28;20186;-75
2023/11/20 02:45:46;;;;;;;6.30;2.17;;;;;;;;;;5032389;28;20598;-74
2023/11/20 02:48:11;;;;;;;4.50;2.10;;;;;;;;;;5028620;28;20205;-74
2023/11/20 02:50:37;;;;;;;7.47;1.77;;;;;;;;;;5029813;28;20292;-74
2023/11/20 02:53:02;;;;;;;4.32;1.70;;;;;;;;;;5029424;28;20379;-74
2023/11/20 02:55:30;;;;;;;5.18;1.48;;;;;;;;;;5005931;28;20685;-73
2023/11/20 02:57:55;;;;;;;6.03;1.90;;;;;;;;;;5011111;28;20197;-74
2023/11/20 03:00:20;;;;;;;3.63;1.60;;;;;;;;;;5047035;28;20194;-74
2023/11/20 03:02:46;;;;;;;6.00;1.40;;;;;;;;;;5035666;28;20587;-75
2023/11/20 03:05:11;;;;;;;4.78;1.67;;;;;;;;;;5021092;28;20201;-73
2023/11/20 03:07:37;;;;;;;4.68;1.30;;;;;;;;;;5017285;28;20195;-72
2023/11/20 03:10:03;;;;;;;5.03;1.20;;;;;;;;;;5009525;28;20222;-74
2023/11/20 03:12:29;;;;;;;4.00;1.20;;;;;;;;;;5017986;28;20193;-73
2023/11/20 03:14:55;;;;;;;3.58;0.93;;;;;;;;;;5017910;28;20223;-74
2023/11/20 03:17:20;;;;;;;2.78;1.00;;;;;;;;;;5009320;28;20187;-73
2023/11/20 03:19:46;;;;;;;1.15;0.93;;;;;;;;;;5009325;28;20198;-73
2023/11/20 03:22:11;;;;;;;3.53;1.05;;;;;;;;;;5010902;28;20276;-72
2023/11/20 03:24:37;;;;;;;3.28;1.30;;;;;;;;;;5011727;28;20186;-73
2023/11/20 03:27:03;;;;;;;1.25;1.00;;;;;;;;;;5027904;28;20703;-72
2023/11/20 03:29:29;;;;;;;2.33;1.35;;;;;;;;;;5027575;28;20218;-73
2023/11/20 03:31:56;;;;;;;2.28;1.20;;;;;;;;;;5013243;28;20229;-72
2023/11/20 03:34:21;;;;;;;1.25;1.00;;;;;;;;;;5016891;28;20226;-73
2023/11/20 03:36:46;;;;;;;3.35;1.30;;;;;;;;;;5013493;28;20198;-72
2023/11/20 03:39:12;;;;;;;3.80;1.40;;;;;;;;;;5024774;28;20665;-72
2023/11/20 03:41:37;;;;;;;2.42;1.10;;;;;;;;;;5011729;28;20199;-73
2023/11/20 03:44:03;;;;;;;5.22;1.48;;;;;;;;;;5008823;28;20186;-73
2023/11/20 03:46:28;;;;;;;2.22;1.15;;;;;;;;;;5029308;28;20190;-72
2023/11/20 03:48:54;;;;;;;3.92;1.25;;;;;;;;;;5036317;28;20664;-73
2023/11/20 03:51:19;;;;;;;1.73;1.15;;;;;;;;;;5028892;28;20186;-72
2023/11/20 03:53:45;;;;;;;2.72;1.25;;;;;;;;;;5012049;28;20209;-72
2023/11/20 03:56:17;;;;;;;6.47;1.73;;;;;;;;;;5024411;28;20182;-73
2023/11/20 03:58:44;;;;;;;3.08;1.70;;;;;;;;;;5028765;28;20190;-72
2023/11/20 04:01:10;;;;;;;2.88;1.80;;;;;;;;;;5037983;28;20186;-73
2023/11/20 04:03:36;;;;;;;5.13;2.10;;;;;;;;;;5027463;28;20190;-73
2023/11/20 04:06:01;;;;;;;3.35;1.85;;;;;;;;;;5018106;28;20298;-73
2023/11/20 04:08:26;;;;;;;7.50;2.42;;;;;;;;;;5022246;28;20186;-72
2023/11/20 04:10:52;;;;;;;3.47;1.98;;;;;;;;;;5021782;28;20249;-73
2023/11/20 04:13:17;;;;;;;4.07;2.53;;;;;;;;;;5032685;28;20204;-73
2023/11/20 04:15:43;;;;;;;4.18;1.90;;;;;;;;;;5034647;28;20197;-73
2023/11/20 04:18:08;;;;;;;3.97;2.08;;;;;;;;;;5028584;28;20210;-72
2023/11/20 04:20:33;;;;;;;5.78;2.55;;;;;;;;;;5034497;28;20191;-73
2023/11/20 04:22:59;;;;;;;4.00;2.40;;;;;;;;;;5041389;28;20197;-72
2023/11/20 04:25:24;;;;;;;5.70;1.90;;;;;;;;;;5033937;28;20188;-73
2023/11/20 04:27:51;;;;;;;5.88;2.05;;;;;;;;;;5029755;28;20206;-73
2023/11/20 04:30:19;;;;;;;5.78;2.30;;;;;;;;;;5038712;28;20320;-73
2023/11/20 04:32:45;;;;;;;5.35;2.72;;;;;;;;;;5017066;28;20193;-73
2023/11/20 04:35:10;;;;;;;5.70;2.75;;;;;;;;;;5025648;28;20704;-73
2023/11/20 04:37:36;;;;;;;7.60;2.55;;;;;;;;;;5048536;28;20244;-74
2023/11/20 04:40:01;;;;;;;6.82;2.67;;;;;;;;;;5034257;28;20388;-72
2023/11/20 04:42:27;;;;;;;6.20;2.60;;;;;;;;;;5037946;28;20251;-73
2023/11/20 04:44:52;;;;;;;7.03;3.00;;;;;;;;;;5045067;28;20696;-72
2023/11/20 04:47:17;;;;;;;5.57;2.78;;;;;;;;;;5045267;28;20588;-72
2023/11/20 04:49:43;;;;;;;5.32;3.05;;;;;;;;;;5019214;28;20194;-73
2023/11/20 04:52:08;;;;;;;9.38;3.65;;;;;;;;;;5024659;28;20195;-72
2023/11/20 04:54:35;;;;;;;12.18;3.95;;;;;;;;;;5027413;28;20215;-72
2023/11/20 04:57:00;;;;;;;8.13;3.13;;;;;;;;;;5030620;28;20189;-72
2023/11/20 04:59:26;;;;;;;9.38;3.42;;;;;;;;;;5031848;28;20273;-72
2023/11/20 05:01:51;;;;;;;9.63;3.67;;;;;;;;;;5032200;28;20704;-72
2023/11/20 05:04:17;;;;;;;7.20;2.90;;;;;;;;;;5033462;28;20186;-72
2023/11/20 05:06:42;;;;;;;8.02;2.78;;;;;;;;;;5034500;28;20609;-71
2023/11/20 05:09:09;;;;;;;10.52;2.75;;;;;;;;;;5028788;28;20265;-72
2023/11/20 05:11:37;;;;;;;6.68;3.22;;;;;;;;;;5027104;28;20241;-72
2023/11/20 05:14:02;;;;;;;5.60;2.20;;;;;;;;;;5021156;28;20596;-71
2023/11/20 05:16:28;;;;;;;6.25;2.38;;;;;;;;;;5031783;28;20194;-71
2023/11/20 05:18:54;;;;;;;6.60;2.30;;;;;;;;;;5025155;28;20697;-70
2023/11/20 05:21:20;;;;;;;11.68;2.78;;;;;;;;;;5018319;28;20278;-71
2023/11/20 05:23:45;;;;;;;6.22;2.78;;;;;;;;;;5024670;28;20281;-72
2023/11/20 05:26:11;;;;;;;9.38;3.30;;;;;;;;;;5022310;28;20586;-72
2023/11/20 05:28:36;;;;;;;7.05;3.15;;;;;;;;;;5021331;28;20516;-73
2023/11/20 05:31:01;;;;;;;4.70;2.70;;;;;;;;;;5025367;28;20592;-73
2023/11/20 05:33:27;;;;;;;4.65;2.80;;;;;;;;;;5035052;28;20213;-73
2023/11/20 05:35:52;;;;;;;8.45;3.05;;;;;;;;;;5029472;28;20280;-74
2023/11/20 05:38:18;;;;;;;7.07;3.30;;;;;;;;;;5023608;28;20201;-72
2023/11/20 05:40:44;;;;;;;5.22;3.20;;;;;;;;;;5029369;28;20221;-73
2023/11/20 05:43:09;;;;;;;11.65;4.18;;;;;;;;;;5020723;28;20252;-73
2023/11/20 05:45:35;;;;;;;13.20;4.80;;;;;;;;;;5028137;28;20682;-73
2023/11/20 05:48:00;;;;;;;12.23;4.70;;;;;;;;;;5030598;28;20194;-73
2023/11/20 05:50:25;;;;;;;12.70;4.75;;;;;;;;;;5014321;28;20557;-73
2023/11/20 05:52:52;;;;;;;13.05;5.32;;;;;;;;;;5023868;28;20193;-73
2023/11/20 05:55:18;;;;;;;11.65;4.53;;;;;;;;;;5027666;28;20676;-72
2023/11/20 05:57:43;;;;;;;15.73;4.72;;;;;;;;;;5032684;28;20193;-72
2023/11/20 06:00:10;;;;;;;14.18;5.13;;;;;;;;;;5021682;28;20205;-72
2023/11/20 06:02:36;;;;;;;9.35;3.85;;;;;;;;;;5019015;28;20187;-72
2023/11/20 06:05:03;;;;;;;9.15;3.85;;;;;;;;;;5021037;28;20191;-71
2023/11/20 06:07:28;;;;;;;13.38;4.07;;;;;;;;;;5014235;28;20286;-70
2023/11/20 06:09:54;;;;;;;9.93;3.80;;;;;;;;;;5043181;28;20280;-70
2023/11/20 06:12:19;;;;;;;12.70;3.90;;;;;;;;;;5024749;28;20186;-71
2023/11/20 06:14:44;;;;;;;14.00;4.60;;;;;;;;;;5020980;28;20213;-72
2023/11/20 06:17:10;;;;;;;15.32;4.78;;;;;;;;;;5032629;28;20255;-72
2023/11/20 06:19:35;;;;;;;9.55;4.22;;;;;;;;;;5035687;28;20210;-72
2023/11/20 06:22:01;;;;;;;12.23;5.25;;;;;;;;;;5030679;28;20232;-72
2023/11/20 06:24:26;;;;;;;17.77;6.20;;;;;;;;;;5022452;28;20241;-72
2023/11/20 06:26:51;;;;;;;19.48;6.85;;;;;;;;;;5031859;28;20197;-71
2023/11/20 06:29:17;;;;;;;20.73;6.20;;;;;;;;;;5036257;28;20665;-71
2023/11/20 06:31:42;;;;;;;19.92;6.65;;;;;;;;;;5019642;28;20201;-71
2023/11/20 06:34:08;;;;;;;21.83;7.18;;;;;;;;;;5031988;28;20213;-72
2023/11/20 06:36:34;;;;;;;27.42;6.75;;;;;;;;;;5018306;28;20559;-72
2023/11/20 06:39:00;;;;;;;30.08;6.18;;;;;;;;;;5026625;28;20198;-72
2023/11/20 06:41:26;;;;;;;43.97;7.15;;;;;;;;;;5027303;28;20564;-71
2023/11/20 06:43:52;;;;;;;31.75;6.90;;;;;;;;;;5037114;28;20186;-70
2023/11/20 06:46:21;;;;;;;40.63;7.70;;;;;;;;;;5024371;28;20263;-71
2023/11/20 06:48:47;;;;;;;37.28;7.18;;;;;;;;;;5012985;28;20186;-70
2023/11/20 06:51:13;;;;;;;38.58;6.05;;;;;;;;;;5025496;28;20711;-71
2023/11/20 06:53:39;;;;;;;31.45;6.28;;;;;;;;;;5027467;28;20209;-71
2023/11/20 06:56:05;;;;;;;31.25;6.20;;;;;;;;;;5035163;28;20267;-71
2023/11/20 06:58:36;;;;;;;30.63;5.95;;;;;;;;;;5036538;28;20228;-71
2023/11/20 07:01:04;;;;;;;31.58;5.70;;;;;;;;;;5012860;28;20306;-70
2023/11/20 07:03:30;;;;;;;37.63;6.90;;;;;;;;;;5021675;28;20471;-70
2023/11/20 07:05:55;;;;;;;35.33;5.53;;;;;;;;;;5031166;28;20684;-70
2023/11/20 07:08:22;;;;;;;42.60;5.57;;;;;;;;;;5021975;28;20190;-70
2023/11/20 07:10:47;;;;;;;42.40;6.28;;;;;;;;;;5021031;28;20518;-70
2023/11/20 07:13:14;;;;;;;35.72;6.28;;;;;;;;;;5018724;28;20617;-70
2023/11/20 07:15:39;;;;;;;36.45;5.57;;;;;;;;;;5021738;28;20725;-70
2023/11/20 07:18:08;;;;;;;34.95;5.30;;;;;;;;;;5022379;28;20250;-69
2023/11/20 07:20:33;;;;;;;33.35;5.65;;;;;;;;;;5021119;28;20191;-69
2023/11/20 07:23:01;;;;;;;40.45;5.50;;;;;;;;;;5011054;28;20191;-70
2023/11/20 07:25:33;;;;;;;24.45;4.65;;;;;;;;;;5019514;28;20184;-70
2023/11/20 07:27:58;;;;;;;30.95;4.93;;;;;;;;;;5028446;28;20186;-70
2023/11/20 07:30:23;;;;;;;27.80;5.35;;;;;;;;;;5015019;28;20501;-70
2023/11/20 07:32:49;;;;;;;30.60;4.75;;;;;;;;;;5025711;28;20592;-70
2023/11/20 07:35:14;;;;;;;25.55;4.38;;;;;;;;;;5015343;28;20306;-70
2023/11/20 07:37:41;;;;;;;25.63;4.75;;;;;;;;;;5039436;28;20656;-70
2023/11/20 07:40:08;;;;;;;35.97;5.25;;;;;;;;;;5027125;28;20190;-70
2023/11/20 07:42:33;;;;;;;27.45;5.22;;;;;;;;;;5022459;28;20600;-69
2023/11/20 07:44:58;;;;;;;30.13;4.70;;;;;;;;;;5049350;28;20181;-70
2023/11/20 07:47:24;;;;;;;26.65;4.85;;;;;;;;;;5027966;28;20186;-69
2023/11/20 07:49:49;;;;;;;34.42;5.15;;;;;;;;;;5028190;28;20186;-69
2023/11/20 07:52:15;;;;;;;39.45;4.82;;;;;;;;;;5029249;28;20217;-69
2023/11/20 07:54:40;;;;;;;29.42;4.20;;;;;;;;;;5024604;28;20270;-69
2023/11/20 07:57:08;;;;;;;26.92;5.53;;;;;;;;;;5031366;28;20382;-69
2023/11/20 07:59:33;;;;;;;25.70;4.07;;;;;;;;;;5028837;28;20763;-72
2023/11/20 08:01:58;;;;;;;29.48;4.82;;;;;;;;;;5038717;28;20249;-73
2023/11/20 08:04:24;;;;;;;33.25;5.82;;;;;;;;;;5038028;28;20192;-74
2023/11/20 08:06:49;;;;;;;32.80;4.35;;;;;;;;;;5024742;28;20189;-72
2023/11/20 08:09:15;;;;;;;37.08;5.28;;;;;;;;;;5026541;28;20193;-72
2023/11/20 08:11:41;;;;;;;29.73;5.68;;;;;;;;;;5020907;28;20653;-72
2023/11/20 08:14:07;;;;;;;29.45;5.25;;;;;;;;;;5034091;28;20241;-72
2023/11/20 08:16:32;;;;;;;31.65;4.65;;;;;;;;;;5018414;28;20202;-72
2023/11/20 08:19:00;;;;;;;27.73;5.03;;;;;;;;;;5031451;28;20236;-71
2023/11/20 08:21:26;;;;;;;32.10;4.88;;;;;;;;;;5046449;28;20185;-71
2023/11/20 08:23:51;;;;;;;28.92;5.25;;;;;;;;;;5039603;28;21026;-71
2023/11/20 08:26:17;;;;;;;36.75;4.43;;;;;;;;;;5021420;28;20194;-71
2023/11/20 08:28:45;;;;;;;35.63;5.00;;;;;;;;;;5031805;28;20204;-71
2023/11/20 08:31:11;;;;;;;28.08;4.45;;;;;;;;;;5026794;28;20325;-71
2023/11/20 08:33:36;;;;;;;27.90;4.15;;;;;;;;;;5026383;28;20713;-71
2023/11/20 08:36:02;;;;;;;31.20;3.88;;;;;;;;;;5050802;28;20273;-71
2023/11/20 08:38:27;;;;;;;25.45;4.53;;;;;;;;;;5031655;28;20261;-72
2023/11/20 08:40:53;;;;;;;38.25;4.90;;;;;;;;;;5031677;28;20208;-71
2023/11/20 08:43:19;;;;;;;24.23;4.07;;;;;;;;;;5025364;28;20190;-72
2023/11/20 08:45:45;;;;;;;30.10;5.15;;;;;;;;;;5039491;28;20657;-72
2023/11/20 08:48:10;;;;;;;30.55;3.88;;;;;;;;;;5030176;28;20332;-72
2023/11/20 08:50:36;;;;;;;29.25;3.92;;;;;;;;;;5032272;28;20281;-72
2023/11/20 08:53:02;;;;;;;19.33;4.00;;;;;;;;;;5038672;28;20624;-71
2023/11/20 08:55:27;;;;;;;28.83;4.22;;;;;;;;;;5023314;28;20207;-71
2023/11/20 08:57:53;;;;;;;29.80;4.40;;;;;;;;;;5033760;28;20205;-70
2023/11/20 09:00:19;;;;;;;20.10;3.63;;;;;;;;;;5025481;28;20190;-70
2023/11/20 09:02:44;;;;;;;25.98;4.20;;;;;;;;;;5030159;28;20186;-71
2023/11/20 09:05:12;;;;;;;18.98;4.65;;;;;;;;;;5035381;28;20208;-71
2023/11/20 09:07:38;;;;;;;36.63;4.22;;;;;;;;;;5024929;28;20191;-70
2023/11/20 09:10:04;;;;;;;23.48;4.47;;;;;;;;;;5023831;28;20227;-70
2023/11/20 09:12:30;;;;;;;22.73;4.80;;;;;;;;;;5036764;28;20198;-70
2023/11/20 09:14:56;;;;;;;27.70;4.57;;;;;;;;;;5031324;28;20228;-69
2023/11/20 09:17:21;;;;;;;34.95;5.80;;;;;;;;;;5032657;28;20185;-70
2023/11/20 09:19:46;;;;;;;30.15;4.35;;;;;;;;;;5026125;28;20189;-69
2023/11/20 09:22:14;;;;;;;26.27;4.80;;;;;;;;;;5036833;28;20182;-69
2023/11/20 09:24:39;;;;;;;27.90;4.80;;;;;;;;;;5029352;28;20633;-70
2023/11/20 09:27:06;;;;;;;27.85;4.47;;;;;;;;;;5043893;28;20189;-70
2023/11/20 09:29:31;;;;;;;32.33;4.90;;;;;;;;;;5039362;28;20300;-70
2023/11/20 09:31:56;;;;;;;26.33;4.05;;;;;;;;;;5028633;28;20186;-70
2023/11/20 09:34:23;;;;;;;32.17;4.45;;;;;;;;;;5033005;28;20240;-69
2023/11/20 09:36:50;;;;;;;22.90;3.72;;;;;;;;;;5039458;28;20525;-70
2023/11/20 09:39:17;;;;;;;22.77;4.68;;;;;;;;;;5038374;28;20193;-70
2023/11/20 09:41:43;;;;;;;24.25;3.90;;;;;;;;;;5034879;28;20198;-70
2023/11/20 09:44:10;;;;;;;24.55;3.95;;;;;;;;;;5035853;28;20182;-70
2023/11/20 09:46:40;;;;;;;28.17;4.00;;;;;;;;;;5037812;28;20232;-70
2023/11/20 09:49:08;;;;;;;20.90;3.67;;;;;;;;;;5043877;28;20186;-70
2023/11/20 09:51:35;;;;;;;28.27;3.83;;;;;;;;;;5030676;28;20189;-70
2023/11/20 09:54:08;;;;;;;21.13;3.00;;;;;;;;;;5028118;28;20400;-69
2023/11/20 09:56:34;;;;;;;28.23;3.90;;;;;;;;;;5036738;28;20189;-70
2023/11/20 09:59:00;;;;;;;33.28;3.92;;;;;;;;;;5021043;28;20191;-70
2023/11/20 10:01:26;;;;;;;24.48;4.07;;;;;;;;;;5036795;28;20224;-70
2023/11/20 10:03:54;;;;;;;22.75;4.22;;;;;;;;;;5029007;28;20178;-69
2023/11/20 10:06:21;;;;;;;26.17;4.55;;;;;;;;;;5029280;28;20191;-70
2023/11/20 10:08:50;;;;;;;25.27;4.75;;;;;;;;;;5049157;28;20586;-70
2023/11/20 10:11:20;;;;;;;29.02;4.60;;;;;;;;;;5034410;28;20234;-70
2023/11/20 10:13:46;;;;;;;25.20;4.13;;;;;;;;;;5023730;28;20286;-70
2023/11/20 10:16:26;;;;;;;36.80;5.07;;;;;;;;;;5032502;28;20323;-69
2023/11/20 10:18:52;;;;;;;27.60;4.55;;;;;;;;;;5041718;28;20260;-69
2023/11/20 10:21:21;;;;;;;27.10;5.05;;;;;;;;;;5021021;28;20713;-70
2023/11/20 10:23:51;;;;;;;17.25;4.20;;;;;;;;;;5019810;28;20190;-70
2023/11/20 10:26:17;;;;;;;24.95;4.40;;;;;;;;;;5030334;28;20189;-69
2023/11/20 10:28:42;;;;;;;23.70;4.90;;;;;;;;;;5019710;28;20378;-69
2023/11/20 10:31:08;;;;;;;24.25;4.80;;;;;;;;;;5029245;28;20548;-69
2023/11/20 10:33:34;;;;;;;24.70;4.55;;;;;;;;;;5029265;28;20190;-69
2023/11/20 10:36:13;;;;;;;30.90;5.40;;;;;;;;;;5019982;28;20240;-69
2023/11/20 10:38:39;;;;;;;27.35;4.70;;;;;;;;;;5024461;28;20633;-69
2023/11/20 10:41:08;;;;;;;22.65;5.20;;;;;;;;;;5023033;28;20228;-69
2023/11/20 10:43:36;;;;;;;27.45;4.72;;;;;;;;;;5025710;28;20198;-69
2023/11/20 10:46:01;;;;;;;34.90;5.30;;;;;;;;;;5032184;28;20902;-70
2023/11/20 10:48:34;;;;;;;24.88;5.00;;;;;;;;;;5022559;28;20266;-69
2023/11/20 10:51:07;;;;;;;31.85;5.38;;;;;;;;;;5024843;28;20190;-69
2023/11/20 10:53:42;;;;;;;29.38;6.30;;;;;;;;;;5018468;28;20218;-69
2023/11/20 10:56:15;;;;;;;25.10;4.78;;;;;;;;;;5028392;28;20735;-68
2023/11/20 10:58:43;;;;;;;33.42;7.07;;;;;;;;;;5035701;28;20492;-68
2023/11/20 11:01:09;;;;;;;22.63;5.35;;;;;;;;;;5038099;28;20270;-68
2023/11/20 11:03:36;;;;;;;25.63;5.70;;;;;;;;;;5029550;28;20266;-68
2023/11/20 11:06:04;;;;;;;34.60;6.30;;;;;;;;;;5030345;28;20197;-68
2023/11/20 11:08:34;;;;;;;26.70;5.82;;;;;;;;;;5009654;28;20183;-69
2023/11/20 11:11:03;;;;;;;38.13;6.07;;;;;;;;;;5008640;28;20238;-68
2023/11/20 11:13:33;;;;;;;27.85;5.50;;;;;;;;;;5027658;28;20182;-69
2023/11/20 11:16:00;;;;;;;21.38;5.25;;;;;;;;;;5024595;28;20182;-69
2023/11/20 11:18:33;;;;;;;25.15;5.05;;;;;;;;;;5011823;28;20233;-68
2023/11/20 11:20:59;;;;;;;31.85;5.30;;;;;;;;;;5028672;28;20197;-69
2023/11/20 11:23:35;;;;;;;24.33;4.80;;;;;;;;;;5015845;28;20187;-69
2023/11/20 11:26:15;;;;;;;24.13;4.72;;;;;;;;;;5009890;28;20497;-68
2023/11/20 11:28:45;;;;;;;21.25;4.82;;;;;;;;;;5026943;28;20272;-68
2023/11/20 11:31:12;;;;;;;22.33;4.28;;;;;;;;;;5029515;28;20250;-68
2023/11/20 11:34:20;;;;;;;23.25;4.20;;;;;;;;;;5011968;28;20206;-68
2023/11/20 11:37:03;;;;;;;25.88;4.00;;;;;;;;;;5021184;28;20324;-68
2023/11/20 11:39:36;;;;;;;24.88;5.25;;;;;;;;;;5018533;28;20186;-68
2023/11/20 11:42:28;;;;;;;23.40;4.03;;;;;;;;;;5024011;28;20212;-68
2023/11/20 11:45:09;;;;;;;26.13;4.55;;;;;;;;;;5003816;28;20288;-69
2023/11/20 11:47:34;;;;;;;24.15;3.92;;;;;;;;;;5019403;28;20191;-68
2023/11/20 11:50:00;;;;;;;22.05;4.45;;;;;;;;;;5011765;28;20206;-68
2023/11/20 11:52:27;;;;;;;21.90;4.15;;;;;;;;;;5016357;28;20232;-68
2023/11/20 11:55:12;;;;;;;29.38;4.00;;;;;;;;;;5053211;28;20551;-68
2023/11/20 11:57:39;;;;;;;23.00;4.03;;;;;;;;;;5022149;28;20315;-68
2023/11/20 12:00:11;;;;;;;23.55;4.28;;;;;;;;;;5028754;28;20201;-68
2023/11/20 12:02:52;;;;;;;21.40;3.35;;;;;;;;;;5034974;28;20186;-68
2023/11/20 12:05:17;;;;;;;22.77;3.60;;;;;;;;;;5016784;28;20609;-68
2023/11/20 12:07:45;;;;;;;20.13;3.28;;;;;;;;;;5040163;28;20268;-68
2023/11/20 12:10:11;;;;;;;25.25;3.67;;;;;;;;;;5025117;28;20637;-68
2023/11/20 12:12:46;;;;;;;21.50;3.13;;;;;;;;;;5027296;28;20242;-68
2023/11/20 12:15:29;;;;;;;22.52;3.63;;;;;;;;;;5035141;28;20339;-68
2023/11/20 12:17:58;;;;;;;24.98;4.35;;;;;;;;;;5016446;28;20246;-68
2023/11/20 12:20:24;;;;;;;25.75;3.78;;;;;;;;;;5027556;28;20256;-68
2023/11/20 12:22:51;;;;;;;29.85;4.47;;;;;;;;;;5030883;28;20608;-68
2023/11/20 12:25:17;;;;;;;25.95;3.53;;;;;;;;;;5027606;28;20715;-68
2023/11/20 12:27:44;;;;;;;22.60;3.42;;;;;;;;;;5026502;28;20214;-68
2023/11/20 12:30:11;;;;;;;21.77;4.00;;;;;;;;;;5034466;28;20193;-68
2023/11/20 12:32:36;;;;;;;21.83;4.38;;;;;;;;;;5018016;28;20182;-68
2023/11/20 12:35:03;;;;;;;18.42;3.85;;;;;;;;;;5028492;28;20220;-68
2023/11/20 12:37:31;;;;;;;20.20;3.38;;;;;;;;;;5031040;28;20186;-69
2023/11/20 12:39:57;;;;;;;18.60;3.63;;;;;;;;;;5023564;28;20562;-68
2023/11/20 12:42:24;;;;;;;26.27;4.38;;;;;;;;;;5026576;28;20651;-68
2023/11/20 12:44:49;;;;;;;20.52;3.78;;;;;;;;;;5034366;28;20360;-67
2023/11/20 12:47:15;;;;;;;24.10;4.00;;;;;;;;;;5041780;28;20672;-67
2023/11/20 12:49:40;;;;;;;21.80;3.20;;;;;;;;;;5033049;28;20198;-67
2023/11/20 12:52:06;;;;;;;19.85;3.80;;;;;;;;;;5028631;28;20217;-67
2023/11/20 12:54:31;;;;;;;24.55;3.65;;;;;;;;;;5029294;28;20562;-67
2023/11/20 12:56:56;;;;;;;28.60;3.97;;;;;;;;;;5040920;28;20214;-69
2023/11/20 12:59:22;;;;;;;22.77;3.50;;;;;;;;;;5028695;28;20193;-67
2023/11/20 13:01:47;;;;;;;26.65;3.95;;;;;;;;;;5045130;28;20233;-67
2023/11/20 13:04:13;;;;;;;23.65;3.55;;;;;;;;;;5041250;28;20186;-67
2023/11/20 13:06:39;;;;;;;17.75;3.22;;;;;;;;;;5021823;28;20186;-67
2023/11/20 13:09:07;;;;;;;22.02;3.45;;;;;;;;;;5043581;28;20240;-67
2023/11/20 13:11:34;;;;;;;21.27;3.60;;;;;;;;;;5031029;28;20249;-67
2023/11/20 13:14:00;;;;;;;19.83;3.17;;;;;;;;;;5033499;28;20564;-67
2023/11/20 13:16:26;;;;;;;23.88;3.75;;;;;;;;;;5043578;28;20667;-67
2023/11/20 13:18:51;;;;;;;23.33;4.05;;;;;;;;;;5032121;28;20214;-68
2023/11/20 13:21:25;;;;;;;25.80;3.97;;;;;;;;;;5030966;28;20190;-67
2023/11/20 13:24:00;;;;;;;23.65;4.55;;;;;;;;;;5017804;28;20178;-67
2023/11/20 13:26:26;;;;;;;24.88;4.60;;;;;;;;;;5017752;28;20196;-67
2023/11/20 13:28:52;;;;;;;19.88;4.20;;;;;;;;;;5029707;28;20186;-68
2023/11/20 13:31:17;;;;;;;21.48;3.95;;;;;;;;;;5025348;28;20669;-69
2023/11/20 13:33:43;;;;;;;17.35;4.10;;;;;;;;;;5028221;28;20201;-67
2023/11/20 13:36:11;;;;;;;23.67;4.50;;;;;;;;;;5018871;28;20209;-67
2023/11/20 13:38:36;;;;;;;20.27;3.88;;;;;;;;;;5025965;28;20197;-67
2023/11/20 13:41:03;;;;;;;19.52;4.90;;;;;;;;;;5029700;28;20657;-67
2023/11/20 13:43:29;;;;;;;18.58;4.40;;;;;;;;;;5034541;28;20277;-68
2023/11/20 13:46:01;;;;;;;20.02;4.60;;;;;;;;;;5033851;28;20273;-68
2023/11/20 13:48:27;;;;;;;21.48;4.60;;;;;;;;;;5032274;28;20193;-68
2023/11/20 13:50:53;;;;;;;26.73;4.45;;;;;;;;;;5043294;28;20349;-67
2023/11/20 13:53:21;;;;;;;22.10;3.97;;;;;;;;;;5030391;28;20680;-67
2023/11/20 13:55:48;;;;;;;23.55;4.65;;;;;;;;;;5025193;28;20304;-67
2023/11/20 13:58:14;;;;;;;19.65;4.95;;;;;;;;;;5025029;28;20193;-68
2023/11/20 14:00:41;;;;;;;27.35;4.70;;;;;;;;;;5028471;28;20544;-68
2023/11/20 14:03:07;;;;;;;16.27;4.45;;;;;;;;;;5038002;28;20779;-67
2023/11/20 14:05:32;;;;;;;21.80;5.18;;;;;;;;;;5031612;28;20276;-67
2023/11/20 14:08:00;;;;;;;15.48;4.47;;;;;;;;;;5035525;28;20248;-69
2023/11/20 14:10:26;;;;;;;19.00;4.93;;;;;;;;;;5026679;28;20244;-68
2023/11/20 14:12:51;;;;;;;24.75;4.70;;;;;;;;;;5020550;28;20202;-68
2023/11/20 14:15:17;;;;;;;25.67;5.00;;;;;;;;;;5026493;28;20568;-68
2023/11/20 14:17:43;;;;;;;21.33;4.80;;;;;;;;;;5023147;28;20212;-68
2023/11/20 14:20:12;;;;;;;28.60;4.93;;;;;;;;;;5038820;28;20696;-68
2023/11/20 14:22:41;;;;;;;32.55;5.72;;;;;;;;;;5035576;28;20190;-68
2023/11/20 14:25:10;;;;;;;20.02;5.18;;;;;;;;;;5019732;28;20197;-69
2023/11/20 14:27:35;;;;;;;18.48;4.43;;;;;;;;;;5037450;28;20201;-69
2023/11/20 14:30:01;;;;;;;24.33;5.30;;;;;;;;;;5015242;28;20190;-69
2023/11/20 14:32:26;;;;;;;28.08;4.78;;;;;;;;;;5018709;28;20285;-70